Pride — ZDFD7 — position and weather

sailwx.info

Track history (hours):
 
Tides and Currents Weather Stations Pressure Air Temp Water Temp Dewpoint Dewpoint Depression Visibility Wind Speed Wind Dir Waves Ship Positions

Pride

Last reported at 2016-May-28 21:33 UTC. Time now 2016-May-28 22:09 UTC.
Position N 43°42' E 007°17'.

Length 88 m; draft 3.5 m.

Type: Cargo ship. MMSI: 236166000.

Date/timePositionNaut miles runAvg speedWind from/ knotsBaromVisibWave heightAir tempDewpointWater temp
2016-May-28 21:33N 43°42' E 007°17'0 0.0
2016-May-28 20:33N 43°42' E 007°17'0 0.0
2016-May-28 19:33N 43°42' E 007°17'0 0.0
2016-May-28 18:33N 43°42' E 007°17'0 0.0
2016-May-28 17:33N 43°42' E 007°17'0 0.0
2016-May-28 16:33N 43°42' E 007°17'0 0.0
2016-May-28 15:33N 43°42' E 007°17'0 0.0
2016-May-28 14:30N 43°42' E 007°17'0 0.0
2016-May-28 13:34N 43°42' E 007°17'0 0.0
2016-May-28 12:33N 43°42' E 007°17'0 0.0
2016-May-28 11:33N 43°42' E 007°17'0 0.0
2016-May-28 10:33N 43°42' E 007°17'0 0.0
2016-May-28 09:32N 43°42' E 007°17'0 0.0
2016-May-28 08:33N 43°42' E 007°17'0 0.0
2016-May-28 07:33N 43°42' E 007°17'0 0.0
2016-May-28 06:33N 43°42' E 007°17'0 0.0
2016-May-28 05:33N 43°42' E 007°17'5 4.5
2016-May-28 04:32N 43°37' E 007°16'7 6.8
2016-May-28 03:33N 43°31' E 007°12'8 7.5
2016-May-28 02:33N 43°26' E 007°05'91 7.4
2016-May-27 14:14N 43°14' E 005°00'6 8.9
2016-May-27 13:33N 43°20' E 004°58'7 7.2
2016-May-27 12:33N 43°26' E 004°52'0 0.0
2016-May-27 11:20N 43°26' E 004°52'0 0.0
2016-May-26 18:24N 43°26' E 004°52'0 0.0
2016-May-26 17:19N 43°26' E 004°52'0 0.0
2016-May-26 13:06N 43°26' E 004°52'0 0.0
2016-May-26 11:31N 43°26' E 004°52'0 0.0
2016-May-26 10:28N 43°26' E 004°52'0 0.0
2016-May-26 09:28N 43°26' E 004°52'0 0.0
2016-May-26 08:26N 43°26' E 004°52'0 0.0
2016-May-26 07:29N 43°26' E 004°52'0 0.0
2016-May-26 06:30N 43°26' E 004°52'0 0.0
2016-May-26 05:29N 43°26' E 004°52'0 0.0
2016-May-26 04:29N 43°26' E 004°52'0 0.0
2016-May-26 03:33N 43°26' E 004°52'8 7.9
2016-May-26 02:33N 43°20' E 004°59'9 8.5
2016-May-26 01:29N 43°11' E 005°05'29 9.6
2016-May-25 22:28N 43°02' E 005°42'61 8.7
2016-May-25 15:25N 43°23' E 007°01'910.2
2016-May-25 14:34N 43°29' E 007°09'1010.1
2016-May-25 13:33N 43°38' E 007°16'4 4.0
2016-May-25 12:33N 43°42' E 007°17'0 0.0
2016-May-25 11:29N 43°42' E 007°17'0 0.0
2016-May-25 10:33N 43°42' E 007°17'0 0.0
2016-May-25 09:33N 43°42' E 007°17'0 0.0
2016-May-25 08:33N 43°42' E 007°17'0 0.0
2016-May-25 07:28N 43°42' E 007°17'0 0.0
2016-May-25 06:16N 43°42' E 007°17'0 0.0
2016-May-25 05:28N 43°42' E 007°17'0 0.0
2016-May-25 04:28N 43°42' E 007°17'0 0.0
2016-May-25 03:29N 43°42' E 007°17'0 0.0
2016-May-25 02:33N 43°42' E 007°17'0 0.0
2016-May-25 01:33N 43°42' E 007°17'0 0.0
2016-May-25 00:22N 43°42' E 007°17'0 0.0
2016-May-24 23:10N 43°42' E 007°17'0 0.0
2016-May-24 22:28N 43°42' E 007°17'0 0.0
2016-May-24 21:26N 43°42' E 007°17'0 0.0
2016-May-24 20:14N 43°42' E 007°17'0 0.0
2016-May-24 19:32N 43°42' E 007°17'0 0.0
2016-May-24 18:11N 43°42' E 007°17'0 0.0
2016-May-24 17:23N 43°42' E 007°17'0 0.0
2016-May-24 16:30N 43°42' E 007°17'0 0.0
2016-May-24 15:26N 43°42' E 007°17'0 0.0
2016-May-24 14:32N 43°42' E 007°17'0 0.0
2016-May-24 13:26N 43°42' E 007°17'0 0.0
2016-May-24 12:20N 43°42' E 007°17'0 0.0
2016-May-24 11:24N 43°42' E 007°17'0 0.0
2016-May-24 10:28N 43°42' E 007°17'0 0.0
2016-May-24 09:26N 43°42' E 007°17'0 0.0
2016-May-24 08:32N 43°42' E 007°17'0 0.0
2016-May-24 07:29N 43°42' E 007°17'0 0.0
2016-May-24 06:32N 43°42' E 007°17'0 0.0
2016-May-24 05:26N 43°42' E 007°17'0 0.0
2016-May-24 04:30N 43°42' E 007°17'3 3.0
2016-May-24 03:33N 43°39' E 007°17'7 7.0
2016-May-24 02:33N 43°32' E 007°14'8 7.9
2016-May-24 01:33N 43°27' E 007°06'85 8.2
2016-May-23 15:08N 43°09' E 005°12'9 9.6
2016-May-23 14:11N 43°14' E 005°01'710.6
2016-May-23 13:33N 43°20' E 004°58'7 7.1
2016-May-23 12:33N 43°26' E 004°52'0 0.0
2016-May-23 11:31N 43°26' E 004°52'0 0.0
2016-May-23 10:32N 43°26' E 004°52'0 0.0
2016-May-23 09:27N 43°26' E 004°52'0 0.0
2016-May-23 08:31N 43°26' E 004°52'0 0.0
2016-May-23 07:25N 43°26' E 004°52'0 0.0
2016-May-23 06:26N 43°26' E 004°52'0 0.0
2016-May-23 05:32N 43°26' E 004°52'0 0.0
2016-May-23 04:22N 43°26' E 004°52'0 0.0
2016-May-23 03:25N 43°26' E 004°52'0 0.0
2016-May-23 02:31N 43°26' E 004°52'0 0.0
2016-May-23 01:29N 43°26' E 004°52'0 0.0
2016-May-23 00:32N 43°26' E 004°52'0 0.0
2016-May-22 23:32N 43°26' E 004°52'0 0.0
2016-May-22 22:29N 43°26' E 004°52'0 0.0
2016-May-22 21:31N 43°26' E 004°52'0 0.0
2016-May-22 20:31N 43°26' E 004°52'0 0.0
2016-May-22 19:18N 43°26' E 004°52'0 0.0
2016-May-22 16:24N 43°26' E 004°52'0 0.0
2016-May-22 15:05N 43°26' E 004°52'0 0.0
2016-May-22 14:16N 43°26' E 004°52'0 0.0
2016-May-22 08:30N 43°26' E 004°52'0 0.0
2016-May-22 07:24N 43°26' E 004°52'0 0.0
2016-May-22 06:26N 43°26' E 004°52'0 0.0
2016-May-22 02:30N 43°26' E 004°52'0 0.0
2016-May-21 22:32N 43°26' E 004°52'0 0.0
2016-May-21 21:33N 43°26' E 004°52'0 0.0
2016-May-21 20:29N 43°26' E 004°52'0 0.0
2016-May-21 16:24N 43°26' E 004°52'0 0.0
2016-May-21 15:28N 43°26' E 004°52'0 0.0
2016-May-21 14:31N 43°26' E 004°52'0 0.0
2016-May-21 13:27N 43°26' E 004°52'0 0.0
2016-May-21 12:33N 43°26' E 004°52'0 0.0
2016-May-21 11:30N 43°26' E 004°52'0 0.0
2016-May-21 10:31N 43°26' E 004°52'0 0.0
2016-May-21 09:33N 43°26' E 004°52'6 5.8
2016-May-21 08:33N 43°22' E 004°58'11 9.7
2016-May-21 07:27N 43°12' E 005°03'3010.2
2016-May-21 04:33N 43°02' E 005°41'64 9.2
2016-May-20 21:33N 43°25' E 007°04'1110.6
2016-May-20 20:32N 43°33' E 007°14'9 9.4
2016-May-20 19:33N 43°42' E 007°17'0 0.1
2016-May-20 17:33N 43°42' E 007°17'0 0.0
2016-May-20 16:28N 43°42' E 007°17'0 0.0
2016-May-20 15:21N 43°42' E 007°17'0 0.0
2016-May-20 14:11N 43°42' E 007°17'0 0.0
2016-May-20 13:31N 43°42' E 007°17'0 0.0
2016-May-20 12:28N 43°42' E 007°17'0 0.0
2016-May-20 11:24N 43°42' E 007°17'0 0.0
2016-May-20 10:29N 43°42' E 007°17'0 0.0
2016-May-20 09:28N 43°42' E 007°17'0 0.0
2016-May-20 07:26N 43°42' E 007°17'0 0.0
2016-May-20 04:33N 43°42' E 007°17'4 4.0
2016-May-20 03:32N 43°38' E 007°17'7 7.0
2016-May-20 02:32N 43°31' E 007°13'8 8.5
2016-May-20 01:34N 43°25' E 007°05'87 8.3
2016-May-19 15:06N 43°10' E 005°07'6 9.7
2016-May-19 14:31N 43°14' E 005°01'1010.2
2016-May-19 13:33N 43°23' E 004°56'4 3.7
2016-May-19 12:33N 43°26' E 004°52'0 0.0
2016-May-19 11:21N 43°26' E 004°52'0 0.0
2016-May-19 10:33N 43°26' E 004°52'0 0.0
2016-May-19 06:06N 43°26' E 004°52'0 0.0
2016-May-19 05:29N 43°26' E 004°52'0 0.0
2016-May-19 04:24N 43°26' E 004°52'0 0.0
2016-May-19 02:30N 43°26' E 004°52'0 0.0
2016-May-19 01:28N 43°26' E 004°52'0 0.0
2016-May-19 00:30N 43°26' E 004°52'0 0.0
2016-May-18 23:33N 43°26' E 004°52'0 0.0
2016-May-18 22:33N 43°26' E 004°52'  
Track history (hours):
 
Tides and Currents Weather Stations Pressure Air Temp Water Temp Dewpoint Dewpoint Depression Visibility Wind Speed Wind Dir Waves Ship Positions

Pride

Last reported at 2016-May-28 21:33 UTC. Time now 2016-May-28 22:09 UTC.
Position N 43°42' E 007°17'.

Length 88 m; draft 3.5 m.

Type: Cargo ship. MMSI: 236166000.

Date/timePositionNaut miles runAvg speedWind from/ knotsBaromVisibWave heightAir tempDewpointWater temp
2016-May-28 21:33N 43°42' E 007°17'0 0.0
2016-May-28 20:33N 43°42' E 007°17'0 0.0
2016-May-28 19:33N 43°42' E 007°17'0 0.0
2016-May-28 18:33N 43°42' E 007°17'0 0.0
2016-May-28 17:33N 43°42' E 007°17'0 0.0
2016-May-28 16:33N 43°42' E 007°17'0 0.0
2016-May-28 15:33N 43°42' E 007°17'0 0.0
2016-May-28 14:30N 43°42' E 007°17'0 0.0
2016-May-28 13:34N 43°42' E 007°17'0 0.0
2016-May-28 12:33N 43°42' E 007°17'0 0.0
2016-May-28 11:33N 43°42' E 007°17'0 0.0
2016-May-28 10:33N 43°42' E 007°17'0 0.0
2016-May-28 09:32N 43°42' E 007°17'0 0.0
2016-May-28 08:33N 43°42' E 007°17'0 0.0
2016-May-28 07:33N 43°42' E 007°17'0 0.0
2016-May-28 06:33N 43°42' E 007°17'0 0.0
2016-May-28 05:33N 43°42' E 007°17'5 4.5
2016-May-28 04:32N 43°37' E 007°16'7 6.8
2016-May-28 03:33N 43°31' E 007°12'8 7.5
2016-May-28 02:33N 43°26' E 007°05'91 7.4
2016-May-27 14:14N 43°14' E 005°00'6 8.9
2016-May-27 13:33N 43°20' E 004°58'7 7.2
2016-May-27 12:33N 43°26' E 004°52'0 0.0
2016-May-27 11:20N 43°26' E 004°52'0 0.0
2016-May-26 18:24N 43°26' E 004°52'0 0.0
2016-May-26 17:19N 43°26' E 004°52'0 0.0
2016-May-26 13:06N 43°26' E 004°52'0 0.0
2016-May-26 11:31N 43°26' E 004°52'0 0.0
2016-May-26 10:28N 43°26' E 004°52'0 0.0
2016-May-26 09:28N 43°26' E 004°52'0 0.0
2016-May-26 08:26N 43°26' E 004°52'0 0.0
2016-May-26 07:29N 43°26' E 004°52'0 0.0
2016-May-26 06:30N 43°26' E 004°52'0 0.0
2016-May-26 05:29N 43°26' E 004°52'0 0.0
2016-May-26 04:29N 43°26' E 004°52'0 0.0
2016-May-26 03:33N 43°26' E 004°52'8 7.9
2016-May-26 02:33N 43°20' E 004°59'9 8.5
2016-May-26 01:29N 43°11' E 005°05'29 9.6
2016-May-25 22:28N 43°02' E 005°42'61 8.7
2016-May-25 15:25N 43°23' E 007°01'910.2
2016-May-25 14:34N 43°29' E 007°09'1010.1
2016-May-25 13:33N 43°38' E 007°16'4 4.0
2016-May-25 12:33N 43°42' E 007°17'0 0.0
2016-May-25 11:29N 43°42' E 007°17'0 0.0
2016-May-25 10:33N 43°42' E 007°17'0 0.0
2016-May-25 09:33N 43°42' E 007°17'0 0.0
2016-May-25 08:33N 43°42' E 007°17'0 0.0
2016-May-25 07:28N 43°42' E 007°17'0 0.0
2016-May-25 06:16N 43°42' E 007°17'0 0.0
2016-May-25 05:28N 43°42' E 007°17'0 0.0
2016-May-25 04:28N 43°42' E 007°17'0 0.0
2016-May-25 03:29N 43°42' E 007°17'0 0.0
2016-May-25 02:33N 43°42' E 007°17'0 0.0
2016-May-25 01:33N 43°42' E 007°17'0 0.0
2016-May-25 00:22N 43°42' E 007°17'0 0.0
2016-May-24 23:10N 43°42' E 007°17'0 0.0
2016-May-24 22:28N 43°42' E 007°17'0 0.0
2016-May-24 21:26N 43°42' E 007°17'0 0.0
2016-May-24 20:14N 43°42' E 007°17'0 0.0
2016-May-24 19:32N 43°42' E 007°17'0 0.0
2016-May-24 18:11N 43°42' E 007°17'0 0.0
2016-May-24 17:23N 43°42' E 007°17'0 0.0
2016-May-24 16:30N 43°42' E 007°17'0 0.0
2016-May-24 15:26N 43°42' E 007°17'0 0.0
2016-May-24 14:32N 43°42' E 007°17'0 0.0
2016-May-24 13:26N 43°42' E 007°17'0 0.0
2016-May-24 12:20N 43°42' E 007°17'0 0.0
2016-May-24 11:24N 43°42' E 007°17'0 0.0
2016-May-24 10:28N 43°42' E 007°17'0 0.0
2016-May-24 09:26N 43°42' E 007°17'0 0.0
2016-May-24 08:32N 43°42' E 007°17'0 0.0
2016-May-24 07:29N 43°42' E 007°17'0 0.0
2016-May-24 06:32N 43°42' E 007°17'0 0.0
2016-May-24 05:26N 43°42' E 007°17'0 0.0
2016-May-24 04:30N 43°42' E 007°17'3 3.0
2016-May-24 03:33N 43°39' E 007°17'7 7.0
2016-May-24 02:33N 43°32' E 007°14'8 7.9
2016-May-24 01:33N 43°27' E 007°06'85 8.2
2016-May-23 15:08N 43°09' E 005°12'9 9.6
2016-May-23 14:11N 43°14' E 005°01'710.6
2016-May-23 13:33N 43°20' E 004°58'7 7.1
2016-May-23 12:33N 43°26' E 004°52'0 0.0
2016-May-23 11:31N 43°26' E 004°52'0 0.0
2016-May-23 10:32N 43°26' E 004°52'0 0.0
2016-May-23 09:27N 43°26' E 004°52'0 0.0
2016-May-23 08:31N 43°26' E 004°52'0 0.0
2016-May-23 07:25N 43°26' E 004°52'0 0.0
2016-May-23 06:26N 43°26' E 004°52'0 0.0
2016-May-23 05:32N 43°26' E 004°52'0 0.0
2016-May-23 04:22N 43°26' E 004°52'0 0.0
2016-May-23 03:25N 43°26' E 004°52'0 0.0
2016-May-23 02:31N 43°26' E 004°52'0 0.0
2016-May-23 01:29N 43°26' E 004°52'0 0.0
2016-May-23 00:32N 43°26' E 004°52'0 0.0
2016-May-22 23:32N 43°26' E 004°52'0 0.0
2016-May-22 22:29N 43°26' E 004°52'0 0.0
2016-May-22 21:31N 43°26' E 004°52'0 0.0
2016-May-22 20:31N 43°26' E 004°52'0 0.0
2016-May-22 19:18N 43°26' E 004°52'0 0.0
2016-May-22 16:24N 43°26' E 004°52'0 0.0
2016-May-22 15:05N 43°26' E 004°52'0 0.0
2016-May-22 14:16N 43°26' E 004°52'0 0.0
2016-May-22 08:30N 43°26' E 004°52'0 0.0
2016-May-22 07:24N 43°26' E 004°52'0 0.0
2016-May-22 06:26N 43°26' E 004°52'0 0.0
2016-May-22 02:30N 43°26' E 004°52'0 0.0
2016-May-21 22:32N 43°26' E 004°52'0 0.0
2016-May-21 21:33N 43°26' E 004°52'0 0.0
2016-May-21 20:29N 43°26' E 004°52'0 0.0
2016-May-21 16:24N 43°26' E 004°52'0 0.0
2016-May-21 15:28N 43°26' E 004°52'0 0.0
2016-May-21 14:31N 43°26' E 004°52'0 0.0
2016-May-21 13:27N 43°26' E 004°52'0 0.0
2016-May-21 12:33N 43°26' E 004°52'0 0.0
2016-May-21 11:30N 43°26' E 004°52'0 0.0
2016-May-21 10:31N 43°26' E 004°52'0 0.0
2016-May-21 09:33N 43°26' E 004°52'6 5.8
2016-May-21 08:33N 43°22' E 004°58'11 9.7
2016-May-21 07:27N 43°12' E 005°03'3010.2
2016-May-21 04:33N 43°02' E 005°41'64 9.2
2016-May-20 21:33N 43°25' E 007°04'1110.6
2016-May-20 20:32N 43°33' E 007°14'9 9.4
2016-May-20 19:33N 43°42' E 007°17'0 0.1
2016-May-20 17:33N 43°42' E 007°17'0 0.0
2016-May-20 16:28N 43°42' E 007°17'0 0.0
2016-May-20 15:21N 43°42' E 007°17'0 0.0
2016-May-20 14:11N 43°42' E 007°17'0 0.0
2016-May-20 13:31N 43°42' E 007°17'0 0.0
2016-May-20 12:28N 43°42' E 007°17'0 0.0
2016-May-20 11:24N 43°42' E 007°17'0 0.0
2016-May-20 10:29N 43°42' E 007°17'0 0.0
2016-May-20 09:28N 43°42' E 007°17'0 0.0
2016-May-20 07:26N 43°42' E 007°17'0 0.0
2016-May-20 04:33N 43°42' E 007°17'4 4.0
2016-May-20 03:32N 43°38' E 007°17'7 7.0
2016-May-20 02:32N 43°31' E 007°13'8 8.5
2016-May-20 01:34N 43°25' E 007°05'87 8.3
2016-May-19 15:06N 43°10' E 005°07'6 9.7
2016-May-19 14:31N 43°14' E 005°01'1010.2
2016-May-19 13:33N 43°23' E 004°56'4 3.7
2016-May-19 12:33N 43°26' E 004°52'0 0.0
2016-May-19 11:21N 43°26' E 004°52'0 0.0
2016-May-19 10:33N 43°26' E 004°52'0 0.0
2016-May-19 06:06N 43°26' E 004°52'0 0.0
2016-May-19 05:29N 43°26' E 004°52'0 0.0
2016-May-19 04:24N 43°26' E 004°52'0 0.0
2016-May-19 02:30N 43°26' E 004°52'0 0.0
2016-May-19 01:28N 43°26' E 004°52'0 0.0
2016-May-19 00:30N 43°26' E 004°52'0 0.0
2016-May-18 23:33N 43°26' E 004°52'0 0.0
2016-May-18 22:33N 43°26' E 004°52'  

Dump ship's entire track history